sensor_id;sensor_type;location;lat;lon;timestamp;P1;durP1;ratioP1;P2;durP2;ratioP2
78108;SDS011;67354;48.068;11.612;2023-03-12T00:01:38;21.60;;;9.20;;
78108;SDS011;67354;48.068;11.612;2023-03-12T00:04:04;26.65;;;9.95;;
78108;SDS011;67354;48.068;11.612;2023-03-12T00:06:29;21.60;;;9.80;;
78108;SDS011;67354;48.068;11.612;2023-03-12T00:08:55;23.77;;;9.20;;
78108;SDS011;67354;48.068;11.612;2023-03-12T00:11:20;18.37;;;9.43;;
78108;SDS011;67354;48.068;11.612;2023-03-12T00:13:49;19.88;;;9.45;;
78108;SDS011;67354;48.068;11.612;2023-03-12T00:16:16;20.95;;;10.30;;
78108;SDS011;67354;48.068;11.612;2023-03-12T00:18:41;21.40;;;10.80;;
78108;SDS011;67354;48.068;11.612;2023-03-12T00:21:07;19.17;;;10.27;;
78108;SDS011;67354;48.068;11.612;2023-03-12T00:23:33;19.52;;;9.43;;
78108;SDS011;67354;48.068;11.612;2023-03-12T00:26:00;19.73;;;8.35;;
78108;SDS011;67354;48.068;11.612;2023-03-12T00:28:29;18.50;;;9.27;;
78108;SDS011;67354;48.068;11.612;2023-03-12T00:30:55;23.40;;;8.95;;
78108;SDS011;67354;48.068;11.612;2023-03-12T00:33:22;18.98;;;8.63;;
78108;SDS011;67354;48.068;11.612;2023-03-12T00:35:48;23.55;;;9.00;;
78108;SDS011;67354;48.068;11.612;2023-03-12T00:38:13;18.02;;;8.95;;
78108;SDS011;67354;48.068;11.612;2023-03-12T00:40:39;17.95;;;8.63;;
78108;SDS011;67354;48.068;11.612;2023-03-12T00:43:04;19.35;;;9.32;;
78108;SDS011;67354;48.068;11.612;2023-03-12T00:45:30;16.33;;;9.73;;
78108;SDS011;67354;48.068;11.612;2023-03-12T00:47:55;19.00;;;9.07;;
78108;SDS011;67354;48.068;11.612;2023-03-12T00:50:20;15.35;;;9.32;;
78108;SDS011;67354;48.068;11.612;2023-03-12T00:52:46;20.35;;;8.52;;
78108;SDS011;67354;48.068;11.612;2023-03-12T00:55:11;15.63;;;8.13;;
78108;SDS011;67354;48.068;11.612;2023-03-12T00:57:37;17.20;;;9.03;;
78108;SDS011;67354;48.068;11.612;2023-03-12T01:00:02;18.03;;;8.97;;
78108;SDS011;67354;48.068;11.612;2023-03-12T01:02:33;20.45;;;8.82;;
78108;SDS011;67354;48.068;11.612;2023-03-12T01:04:59;15.60;;;7.60;;
78108;SDS011;67354;48.068;11.612;2023-03-12T01:07:24;17.10;;;8.20;;
78108;SDS011;67354;48.068;11.612;2023-03-12T01:09:49;17.25;;;7.90;;
78108;SDS011;67354;48.068;11.612;2023-03-12T01:12:15;17.53;;;8.33;;
78108;SDS011;67354;48.068;11.612;2023-03-12T01:14:40;17.57;;;8.57;;
78108;SDS011;67354;48.068;11.612;2023-03-12T01:17:05;12.50;;;7.87;;
78108;SDS011;67354;48.068;11.612;2023-03-12T01:19:31;15.57;;;7.37;;
78108;SDS011;67354;48.068;11.612;2023-03-12T01:21:56;20.43;;;7.33;;
78108;SDS011;67354;48.068;11.612;2023-03-12T01:24:21;13.33;;;7.33;;
78108;SDS011;67354;48.068;11.612;2023-03-12T01:26:47;17.48;;;7.53;;
78108;SDS011;67354;48.068;11.612;2023-03-12T01:29:12;12.73;;;7.23;;
78108;SDS011;67354;48.068;11.612;2023-03-12T01:31:37;11.17;;;6.60;;
78108;SDS011;67354;48.068;11.612;2023-03-12T01:34:03;14.10;;;6.87;;
78108;SDS011;67354;48.068;11.612;2023-03-12T01:36:28;14.40;;;7.30;;
78108;SDS011;67354;48.068;11.612;2023-03-12T01:38:55;19.27;;;6.93;;
78108;SDS011;67354;48.068;11.612;2023-03-12T01:41:23;16.58;;;6.57;;
78108;SDS011;67354;48.068;11.612;2023-03-12T01:43:49;11.38;;;6.53;;
78108;SDS011;67354;48.068;11.612;2023-03-12T01:48:43;10.98;;;6.13;;
78108;SDS011;67354;48.068;11.612;2023-03-12T01:51:12;13.80;;;6.32;;
78108;SDS011;67354;48.068;11.612;2023-03-12T01:53:39;13.10;;;6.47;;
78108;SDS011;67354;48.068;11.612;2023-03-12T01:56:07;13.32;;;6.35;;
78108;SDS011;67354;48.068;11.612;2023-03-12T01:58:33;19.27;;;6.55;;
78108;SDS011;67354;48.068;11.612;2023-03-12T02:01:02;13.27;;;5.63;;
78108;SDS011;67354;48.068;11.612;2023-03-12T02:03:28;12.45;;;5.80;;
78108;SDS011;67354;48.068;11.612;2023-03-12T02:05:55;11.30;;;5.90;;
78108;SDS011;67354;48.068;11.612;2023-03-12T02:08:24;12.88;;;6.13;;
78108;SDS011;67354;48.068;11.612;2023-03-12T02:10:49;17.45;;;6.22;;
78108;SDS011;67354;48.068;11.612;2023-03-12T02:13:15;18.30;;;7.10;;
78108;SDS011;67354;48.068;11.612;2023-03-12T02:15:40;12.02;;;6.47;;
78108;SDS011;67354;48.068;11.612;2023-03-12T02:18:06;15.07;;;6.22;;
78108;SDS011;67354;48.068;11.612;2023-03-12T02:25:53;15.95;;;7.05;;
78108;SDS011;67354;48.068;11.612;2023-03-12T02:28:20;14.48;;;6.85;;
78108;SDS011;67354;48.068;11.612;2023-03-12T02:30:48;15.35;;;6.97;;
78108;SDS011;67354;48.068;11.612;2023-03-12T02:33:15;12.70;;;6.30;;
78108;SDS011;67354;48.068;11.612;2023-03-12T02:35:41;15.98;;;6.53;;
78108;SDS011;67354;48.068;11.612;2023-03-12T02:38:27;15.20;;;7.38;;
78108;SDS011;67354;48.068;11.612;2023-03-12T02:41:22;15.25;;;7.07;;
78108;SDS011;67354;48.068;11.612;2023-03-12T02:43:56;13.02;;;6.47;;
78108;SDS011;67354;48.068;11.612;2023-03-12T02:46:25;18.73;;;6.85;;
78108;SDS011;67354;48.068;11.612;2023-03-12T02:48:51;15.10;;;7.28;;
78108;SDS011;67354;48.068;11.612;2023-03-12T02:51:16;15.35;;;6.32;;
78108;SDS011;67354;48.068;11.612;2023-03-12T02:53:42;11.55;;;6.72;;
78108;SDS011;67354;48.068;11.612;2023-03-12T02:56:07;12.07;;;6.70;;
78108;SDS011;67354;48.068;11.612;2023-03-12T02:58:32;19.83;;;7.80;;
78108;SDS011;67354;48.068;11.612;2023-03-12T03:00:58;13.10;;;6.93;;
78108;SDS011;67354;48.068;11.612;2023-03-12T03:03:23;16.40;;;7.40;;
78108;SDS011;67354;48.068;11.612;2023-03-12T03:05:48;15.50;;;7.17;;
78108;SDS011;67354;48.068;11.612;2023-03-12T03:08:14;14.23;;;7.83;;
78108;SDS011;67354;48.068;11.612;2023-03-12T03:10:39;17.55;;;7.65;;
78108;SDS011;67354;48.068;11.612;2023-03-12T03:13:05;17.27;;;8.07;;
78108;SDS011;67354;48.068;11.612;2023-03-12T03:15:30;21.10;;;8.18;;
78108;SDS011;67354;48.068;11.612;2023-03-12T03:17:55;16.60;;;8.65;;
78108;SDS011;67354;48.068;11.612;2023-03-12T03:20:22;18.52;;;7.80;;
78108;SDS011;67354;48.068;11.612;2023-03-12T03:22:49;17.27;;;7.43;;
78108;SDS011;67354;48.068;11.612;2023-03-12T03:25:15;21.25;;;9.23;;
78108;SDS011;67354;48.068;11.612;2023-03-12T03:27:42;17.20;;;8.50;;
78108;SDS011;67354;48.068;11.612;2023-03-12T03:30:07;18.17;;;8.03;;
78108;SDS011;67354;48.068;11.612;2023-03-12T03:32:33;15.93;;;8.45;;
78108;SDS011;67354;48.068;11.612;2023-03-12T03:34:59;20.97;;;9.67;;
78108;SDS011;67354;48.068;11.612;2023-03-12T03:37:24;25.85;;;9.75;;
78108;SDS011;67354;48.068;11.612;2023-03-12T03:39:49;19.30;;;8.13;;
78108;SDS011;67354;48.068;11.612;2023-03-12T03:42:15;23.37;;;9.83;;
78108;SDS011;67354;48.068;11.612;2023-03-12T03:44:40;21.07;;;10.10;;
78108;SDS011;67354;48.068;11.612;2023-03-12T03:47:05;21.15;;;9.07;;
78108;SDS011;67354;48.068;11.612;2023-03-12T03:49:31;24.17;;;10.35;;
78108;SDS011;67354;48.068;11.612;2023-03-12T03:51:56;20.90;;;8.98;;
78108;SDS011;67354;48.068;11.612;2023-03-12T03:54:22;19.73;;;9.33;;
78108;SDS011;67354;48.068;11.612;2023-03-12T03:56:47;21.23;;;9.15;;
78108;SDS011;67354;48.068;11.612;2023-03-12T03:59:12;22.42;;;9.65;;
78108;SDS011;67354;48.068;11.612;2023-03-12T04:01:38;23.90;;;9.80;;
78108;SDS011;67354;48.068;11.612;2023-03-12T04:04:03;22.83;;;10.27;;
78108;SDS011;67354;48.068;11.612;2023-03-12T04:06:29;19.77;;;9.80;;
78108;SDS011;67354;48.068;11.612;2023-03-12T04:08:55;25.40;;;9.75;;
78108;SDS011;67354;48.068;11.612;2023-03-12T04:11:21;20.15;;;9.35;;
78108;SDS011;67354;48.068;11.612;2023-03-12T04:13:47;22.77;;;10.02;;
78108;SDS011;67354;48.068;11.612;2023-03-12T04:16:13;21.70;;;10.05;;
78108;SDS011;67354;48.068;11.612;2023-03-12T04:18:39;25.40;;;11.10;;
78108;SDS011;67354;48.068;11.612;2023-03-12T04:21:05;24.65;;;10.52;;
78108;SDS011;67354;48.068;11.612;2023-03-12T04:23:31;21.58;;;9.88;;
78108;SDS011;67354;48.068;11.612;2023-03-12T04:25:56;26.15;;;9.82;;
78108;SDS011;67354;48.068;11.612;2023-03-12T04:28:22;20.73;;;10.10;;
78108;SDS011;67354;48.068;11.612;2023-03-12T04:31:20;22.40;;;9.70;;
78108;SDS011;67354;48.068;11.612;2023-03-12T04:33:39;22.17;;;9.85;;
78108;SDS011;67354;48.068;11.612;2023-03-12T04:36:05;24.23;;;10.77;;
78108;SDS011;67354;48.068;11.612;2023-03-12T04:38:31;24.75;;;10.75;;
78108;SDS011;67354;48.068;11.612;2023-03-12T04:43:23;23.92;;;9.52;;
78108;SDS011;67354;48.068;11.612;2023-03-12T04:45:49;23.27;;;9.63;;
78108;SDS011;67354;48.068;11.612;2023-03-12T04:48:14;25.38;;;10.82;;
78108;SDS011;67354;48.068;11.612;2023-03-12T04:50:40;28.57;;;11.40;;
78108;SDS011;67354;48.068;11.612;2023-03-12T04:53:05;22.70;;;9.77;;
78108;SDS011;67354;48.068;11.612;2023-03-12T04:55:30;24.67;;;11.38;;
78108;SDS011;67354;48.068;11.612;2023-03-12T04:57:56;25.10;;;10.70;;
78108;SDS011;67354;48.068;11.612;2023-03-12T05:00:21;26.50;;;10.67;;
78108;SDS011;67354;48.068;11.612;2023-03-12T05:02:47;24.10;;;10.57;;
78108;SDS011;67354;48.068;11.612;2023-03-12T05:05:12;22.17;;;9.95;;
78108;SDS011;67354;48.068;11.612;2023-03-12T05:07:37;24.33;;;10.32;;
78108;SDS011;67354;48.068;11.612;2023-03-12T05:10:03;27.70;;;10.93;;
78108;SDS011;67354;48.068;11.612;2023-03-12T05:12:28;23.05;;;10.60;;
78108;SDS011;67354;48.068;11.612;2023-03-12T05:14:54;23.67;;;10.53;;
78108;SDS011;67354;48.068;11.612;2023-03-12T05:17:19;26.47;;;11.23;;
78108;SDS011;67354;48.068;11.612;2023-03-12T05:19:45;28.63;;;10.82;;
78108;SDS011;67354;48.068;11.612;2023-03-12T05:22:10;23.27;;;11.40;;
78108;SDS011;67354;48.068;11.612;2023-03-12T05:24:35;30.07;;;11.60;;
78108;SDS011;67354;48.068;11.612;2023-03-12T05:27:01;22.90;;;9.70;;
78108;SDS011;67354;48.068;11.612;2023-03-12T05:29:26;22.25;;;10.95;;
78108;SDS011;67354;48.068;11.612;2023-03-12T05:31:51;25.17;;;10.45;;
78108;SDS011;67354;48.068;11.612;2023-03-12T05:34:17;25.00;;;10.13;;
78108;SDS011;67354;48.068;11.612;2023-03-12T05:36:42;26.55;;;10.70;;
78108;SDS011;67354;48.068;11.612;2023-03-12T05:39:08;24.92;;;11.07;;
78108;SDS011;67354;48.068;11.612;2023-03-12T05:41:33;23.45;;;10.80;;
78108;SDS011;67354;48.068;11.612;2023-03-12T05:43:59;26.60;;;11.25;;
78108;SDS011;67354;48.068;11.612;2023-03-12T05:46:24;22.77;;;10.75;;
78108;SDS011;67354;48.068;11.612;2023-03-12T05:48:50;26.13;;;10.57;;
78108;SDS011;67354;48.068;11.612;2023-03-12T05:51:16;28.65;;;12.10;;
78108;SDS011;67354;48.068;11.612;2023-03-12T05:53:41;26.90;;;11.07;;
78108;SDS011;67354;48.068;11.612;2023-03-12T05:56:07;26.37;;;11.00;;
78108;SDS011;67354;48.068;11.612;2023-03-12T05:58:35;23.73;;;10.38;;
78108;SDS011;67354;48.068;11.612;2023-03-12T06:01:01;23.25;;;10.88;;
78108;SDS011;67354;48.068;11.612;2023-03-12T06:03:28;25.88;;;10.15;;
78108;SDS011;67354;48.068;11.612;2023-03-12T06:05:54;24.50;;;9.93;;
78108;SDS011;67354;48.068;11.612;2023-03-12T06:08:23;22.45;;;9.95;;
78108;SDS011;67354;48.068;11.612;2023-03-12T06:10:51;21.45;;;9.18;;
78108;SDS011;67354;48.068;11.612;2023-03-12T06:13:19;23.08;;;9.13;;
78108;SDS011;67354;48.068;11.612;2023-03-12T06:15:45;20.30;;;9.00;;
78108;SDS011;67354;48.068;11.612;2023-03-12T06:18:10;18.30;;;8.52;;
78108;SDS011;67354;48.068;11.612;2023-03-12T06:20:38;23.67;;;9.55;;
78108;SDS011;67354;48.068;11.612;2023-03-12T06:23:03;73.80;;;27.47;;
78108;SDS011;67354;48.068;11.612;2023-03-12T06:25:28;17.93;;;8.20;;
78108;SDS011;67354;48.068;11.612;2023-03-12T06:27:54;18.60;;;7.35;;
78108;SDS011;67354;48.068;11.612;2023-03-12T06:30:19;16.37;;;7.17;;
78108;SDS011;67354;48.068;11.612;2023-03-12T06:32:44;14.75;;;7.32;;
78108;SDS011;67354;48.068;11.612;2023-03-12T06:35:10;18.92;;;6.63;;
78108;SDS011;67354;48.068;11.612;2023-03-12T06:37:35;18.08;;;6.30;;
78108;SDS011;67354;48.068;11.612;2023-03-12T06:40:00;15.27;;;6.43;;
78108;SDS011;67354;48.068;11.612;2023-03-12T06:42:26;13.20;;;7.25;;
78108;SDS011;67354;48.068;11.612;2023-03-12T06:44:52;14.15;;;6.32;;
78108;SDS011;67354;48.068;11.612;2023-03-12T06:47:17;13.05;;;6.28;;
78108;SDS011;67354;48.068;11.612;2023-03-12T06:49:43;15.68;;;6.57;;
78108;SDS011;67354;48.068;11.612;2023-03-12T06:52:08;14.68;;;6.38;;
78108;SDS011;67354;48.068;11.612;2023-03-12T06:54:34;16.05;;;6.43;;
78108;SDS011;67354;48.068;11.612;2023-03-12T06:56:59;13.23;;;6.23;;
78108;SDS011;67354;48.068;11.612;2023-03-12T06:59:25;14.10;;;6.18;;
78108;SDS011;67354;48.068;11.612;2023-03-12T07:01:50;14.90;;;5.80;;
78108;SDS011;67354;48.068;11.612;2023-03-12T07:04:16;12.48;;;5.63;;
78108;SDS011;67354;48.068;11.612;2023-03-12T07:06:41;12.48;;;5.68;;
78108;SDS011;67354;48.068;11.612;2023-03-12T07:09:07;12.25;;;5.55;;
78108;SDS011;67354;48.068;11.612;2023-03-12T07:11:32;11.82;;;5.75;;
78108;SDS011;67354;48.068;11.612;2023-03-12T07:13:58;14.60;;;5.90;;
78108;SDS011;67354;48.068;11.612;2023-03-12T07:16:23;12.75;;;5.55;;
78108;SDS011;67354;48.068;11.612;2023-03-12T07:18:48;14.53;;;5.43;;
78108;SDS011;67354;48.068;11.612;2023-03-12T07:21:14;14.32;;;5.68;;
78108;SDS011;67354;48.068;11.612;2023-03-12T07:23:47;13.38;;;5.60;;
78108;SDS011;67354;48.068;11.612;2023-03-12T07:26:15;13.32;;;5.72;;
78108;SDS011;67354;48.068;11.612;2023-03-12T07:28:41;10.90;;;5.57;;
78108;SDS011;67354;48.068;11.612;2023-03-12T07:31:06;19.05;;;6.13;;
78108;SDS011;67354;48.068;11.612;2023-03-12T07:33:32;17.98;;;6.57;;
78108;SDS011;67354;48.068;11.612;2023-03-12T07:35:57;14.25;;;5.93;;
78108;SDS011;67354;48.068;11.612;2023-03-12T07:38:23;15.97;;;6.67;;
78108;SDS011;67354;48.068;11.612;2023-03-12T07:40:49;17.23;;;6.70;;
78108;SDS011;67354;48.068;11.612;2023-03-12T07:43:18;17.27;;;7.05;;
78108;SDS011;67354;48.068;11.612;2023-03-12T07:45:43;17.05;;;7.13;;
78108;SDS011;67354;48.068;11.612;2023-03-12T07:48:09;14.93;;;6.03;;
78108;SDS011;67354;48.068;11.612;2023-03-12T07:50:35;16.73;;;7.97;;
78108;SDS011;67354;48.068;11.612;2023-03-12T07:53:01;14.82;;;7.18;;
78108;SDS011;67354;48.068;11.612;2023-03-12T07:55:26;14.98;;;5.40;;
78108;SDS011;67354;48.068;11.612;2023-03-12T07:57:51;12.32;;;5.45;;
78108;SDS011;67354;48.068;11.612;2023-03-12T08:00:22;12.75;;;6.00;;
78108;SDS011;67354;48.068;11.612;2023-03-12T08:02:48;12.70;;;6.38;;
78108;SDS011;67354;48.068;11.612;2023-03-12T08:05:13;12.50;;;5.10;;
78108;SDS011;67354;48.068;11.612;2023-03-12T08:07:38;15.13;;;5.90;;
78108;SDS011;67354;48.068;11.612;2023-03-12T08:10:04;13.33;;;5.70;;
78108;SDS011;67354;48.068;11.612;2023-03-12T08:12:32;16.25;;;5.43;;
78108;SDS011;67354;48.068;11.612;2023-03-12T08:14:57;16.52;;;6.03;;
78108;SDS011;67354;48.068;11.612;2023-03-12T08:17:23;12.13;;;5.13;;
78108;SDS011;67354;48.068;11.612;2023-03-12T08:19:48;10.07;;;4.97;;
78108;SDS011;67354;48.068;11.612;2023-03-12T08:22:14;32.50;;;12.83;;
78108;SDS011;67354;48.068;11.612;2023-03-12T08:24:39;11.67;;;5.53;;
78108;SDS011;67354;48.068;11.612;2023-03-12T08:27:05;13.55;;;6.25;;
78108;SDS011;67354;48.068;11.612;2023-03-12T08:29:30;12.18;;;5.30;;
78108;SDS011;67354;48.068;11.612;2023-03-12T08:31:57;13.27;;;5.25;;
78108;SDS011;67354;48.068;11.612;2023-03-12T08:34:23;11.20;;;4.95;;
78108;SDS011;67354;48.068;11.612;2023-03-12T08:36:48;12.18;;;4.63;;
78108;SDS011;67354;48.068;11.612;2023-03-12T08:39:14;11.60;;;5.45;;
78108;SDS011;67354;48.068;11.612;2023-03-12T08:41:39;15.23;;;6.73;;
78108;SDS011;67354;48.068;11.612;2023-03-12T08:44:05;11.77;;;5.13;;
78108;SDS011;67354;48.068;11.612;2023-03-12T08:46:30;24.70;;;8.15;;
78108;SDS011;67354;48.068;11.612;2023-03-12T08:48:55;14.80;;;7.70;;
78108;SDS011;67354;48.068;11.612;2023-03-12T08:51:21;15.37;;;6.77;;
78108;SDS011;67354;48.068;11.612;2023-03-12T08:53:46;16.53;;;6.87;;
78108;SDS011;67354;48.068;11.612;2023-03-12T08:56:11;16.30;;;7.10;;
78108;SDS011;67354;48.068;11.612;2023-03-12T08:58:37;15.43;;;7.60;;
78108;SDS011;67354;48.068;11.612;2023-03-12T09:01:06;18.43;;;7.70;;
78108;SDS011;67354;48.068;11.612;2023-03-12T09:03:33;15.23;;;7.00;;
78108;SDS011;67354;48.068;11.612;2023-03-12T09:06:02;12.73;;;6.83;;
78108;SDS011;67354;48.068;11.612;2023-03-12T09:08:34;16.23;;;7.25;;
78108;SDS011;67354;48.068;11.612;2023-03-12T09:10:59;19.30;;;6.93;;
78108;SDS011;67354;48.068;11.612;2023-03-12T09:13:26;13.90;;;6.68;;
78108;SDS011;67354;48.068;11.612;2023-03-12T09:15:51;14.05;;;5.82;;
78108;SDS011;67354;48.068;11.612;2023-03-12T09:18:17;15.13;;;6.33;;
78108;SDS011;67354;48.068;11.612;2023-03-12T09:20:44;14.35;;;5.82;;
78108;SDS011;67354;48.068;11.612;2023-03-12T09:23:09;11.68;;;5.78;;
78108;SDS011;67354;48.068;11.612;2023-03-12T09:25:34;13.02;;;5.80;;
78108;SDS011;67354;48.068;11.612;2023-03-12T09:28:00;11.30;;;5.25;;
78108;SDS011;67354;48.068;11.612;2023-03-12T09:30:26;13.43;;;6.00;;
78108;SDS011;67354;48.068;11.612;2023-03-12T09:32:54;9.23;;;5.05;;
78108;SDS011;67354;48.068;11.612;2023-03-12T09:35:19;9.45;;;5.00;;
78108;SDS011;67354;48.068;11.612;2023-03-12T09:37:46;10.33;;;4.87;;
78108;SDS011;67354;48.068;11.612;2023-03-12T09:40:20;11.45;;;4.97;;
78108;SDS011;67354;48.068;11.612;2023-03-12T09:45:37;9.63;;;5.38;;
78108;SDS011;67354;48.068;11.612;2023-03-12T09:48:09;11.95;;;5.38;;
78108;SDS011;67354;48.068;11.612;2023-03-12T09:50:48;12.18;;;5.90;;
78108;SDS011;67354;48.068;11.612;2023-03-12T09:53:27;13.70;;;5.82;;
78108;SDS011;67354;48.068;11.612;2023-03-12T09:56:05;12.30;;;5.68;;
78108;SDS011;67354;48.068;11.612;2023-03-12T09:58:37;13.38;;;6.07;;
78108;SDS011;67354;48.068;11.612;2023-03-12T10:04:23;14.65;;;6.32;;
78108;SDS011;67354;48.068;11.612;2023-03-12T10:07:19;17.13;;;6.38;;
78108;SDS011;67354;48.068;11.612;2023-03-12T10:15:28;12.90;;;6.35;;
78108;SDS011;67354;48.068;11.612;2023-03-12T10:18:27;11.93;;;5.93;;
78108;SDS011;67354;48.068;11.612;2023-03-12T10:21:21;13.10;;;5.82;;
78108;SDS011;67354;48.068;11.612;2023-03-12T10:26:38;16.05;;;7.32;;
78108;SDS011;67354;48.068;11.612;2023-03-12T10:31:57;15.77;;;7.45;;
78108;SDS011;67354;48.068;11.612;2023-03-12T10:36:55;16.90;;;7.55;;
78108;SDS011;67354;48.068;11.612;2023-03-12T10:39:23;22.00;;;7.97;;
78108;SDS011;67354;48.068;11.612;2023-03-12T10:41:48;15.80;;;7.28;;
78108;SDS011;67354;48.068;11.612;2023-03-12T10:44:21;18.63;;;7.35;;
78108;SDS011;67354;48.068;11.612;2023-03-12T10:49:42;12.85;;;5.90;;
78108;SDS011;67354;48.068;11.612;2023-03-12T10:52:15;13.07;;;5.70;;
78108;SDS011;67354;48.068;11.612;2023-03-12T10:54:42;10.13;;;5.53;;
78108;SDS011;67354;48.068;11.612;2023-03-12T10:57:09;12.35;;;5.22;;
78108;SDS011;67354;48.068;11.612;2023-03-12T10:59:39;10.57;;;5.35;;
78108;SDS011;67354;48.068;11.612;2023-03-12T11:04:58;8.88;;;5.15;;
78108;SDS011;67354;48.068;11.612;2023-03-12T11:07:32;10.80;;;5.53;;
78108;SDS011;67354;48.068;11.612;2023-03-12T11:10:41;10.10;;;5.30;;
78108;SDS011;67354;48.068;11.612;2023-03-12T11:12:56;11.27;;;4.85;;
78108;SDS011;67354;48.068;11.612;2023-03-12T11:17:50;9.27;;;4.45;;
78108;SDS011;67354;48.068;11.612;2023-03-12T11:20:26;9.02;;;4.43;;
78108;SDS011;67354;48.068;11.612;2023-03-12T11:22:52;7.55;;;4.18;;
78108;SDS011;67354;48.068;11.612;2023-03-12T11:25:20;7.80;;;4.10;;
78108;SDS011;67354;48.068;11.612;2023-03-12T11:27:48;6.70;;;3.65;;
78108;SDS011;67354;48.068;11.612;2023-03-12T11:30:22;9.05;;;4.72;;
78108;SDS011;67354;48.068;11.612;2023-03-12T11:32:51;5.55;;;3.22;;
78108;SDS011;67354;48.068;11.612;2023-03-12T11:35:18;10.68;;;4.90;;
78108;SDS011;67354;48.068;11.612;2023-03-12T11:37:52;8.93;;;4.35;;
78108;SDS011;67354;48.068;11.612;2023-03-12T11:43:27;6.97;;;4.07;;
78108;SDS011;67354;48.068;11.612;2023-03-12T11:48:45;7.60;;;3.50;;
78108;SDS011;67354;48.068;11.612;2023-03-12T11:57:01;6.47;;;3.55;;
78108;SDS011;67354;48.068;11.612;2023-03-12T12:26:48;10.20;;;5.10;;
78108;SDS011;67354;48.068;11.612;2023-03-12T12:29:20;9.05;;;4.10;;
78108;SDS011;67354;48.068;11.612;2023-03-12T12:31:49;9.65;;;4.45;;
78108;SDS011;67354;48.068;11.612;2023-03-12T12:37:14;9.18;;;4.43;;
78108;SDS011;67354;48.068;11.612;2023-03-12T12:39:46;8.43;;;4.53;;
78108;SDS011;67354;48.068;11.612;2023-03-12T12:42:17;7.82;;;4.30;;
78108;SDS011;67354;48.068;11.612;2023-03-12T12:44:47;10.30;;;4.65;;
78108;SDS011;67354;48.068;11.612;2023-03-12T12:47:17;8.73;;;4.53;;
78108;SDS011;67354;48.068;11.612;2023-03-12T12:49:48;9.23;;;5.15;;
78108;SDS011;67354;48.068;11.612;2023-03-12T12:52:17;29.38;;;10.43;;
78108;SDS011;67354;48.068;11.612;2023-03-12T12:54:50;25.40;;;10.95;;
78108;SDS011;67354;48.068;11.612;2023-03-12T12:57:23;16.63;;;8.40;;
78108;SDS011;67354;48.068;11.612;2023-03-12T13:02:30;14.32;;;6.28;;
78108;SDS011;67354;48.068;11.612;2023-03-12T13:04:57;12.93;;;6.00;;
78108;SDS011;67354;48.068;11.612;2023-03-12T13:09:49;15.30;;;7.28;;
78108;SDS011;67354;48.068;11.612;2023-03-12T13:13:18;13.77;;;6.95;;
78108;SDS011;67354;48.068;11.612;2023-03-12T13:20:21;14.30;;;8.02;;
78108;SDS011;67354;48.068;11.612;2023-03-12T13:22:52;12.85;;;7.05;;
78108;SDS011;67354;48.068;11.612;2023-03-12T13:33:53;15.35;;;6.80;;
78108;SDS011;67354;48.068;11.612;2023-03-12T13:36:22;16.63;;;6.90;;
78108;SDS011;67354;48.068;11.612;2023-03-12T13:38:57;14.60;;;7.20;;
78108;SDS011;67354;48.068;11.612;2023-03-12T13:49:44;13.80;;;5.88;;
78108;SDS011;67354;48.068;11.612;2023-03-12T13:55:00;11.70;;;5.45;;
78108;SDS011;67354;48.068;11.612;2023-03-12T13:57:43;9.70;;;4.95;;
78108;SDS011;67354;48.068;11.612;2023-03-12T14:00:35;11.20;;;5.28;;
78108;SDS011;67354;48.068;11.612;2023-03-12T14:05:41;11.90;;;4.78;;
78108;SDS011;67354;48.068;11.612;2023-03-12T14:16:58;13.82;;;4.63;;
78108;SDS011;67354;48.068;11.612;2023-03-12T14:19:26;11.88;;;4.45;;
78108;SDS011;67354;48.068;11.612;2023-03-12T14:21:53;11.85;;;5.32;;
78108;SDS011;67354;48.068;11.612;2023-03-12T14:26:56;11.23;;;5.40;;
78108;SDS011;67354;48.068;11.612;2023-03-12T14:29:35;14.93;;;5.05;;
78108;SDS011;67354;48.068;11.612;2023-03-12T14:32:11;9.20;;;3.50;;
78108;SDS011;67354;48.068;11.612;2023-03-12T14:34:40;7.70;;;3.65;;
78108;SDS011;67354;48.068;11.612;2023-03-12T14:37:12;12.40;;;4.07;;
78108;SDS011;67354;48.068;11.612;2023-03-12T14:39:51;7.95;;;3.35;;
78108;SDS011;67354;48.068;11.612;2023-03-12T14:42:22;9.43;;;3.85;;
78108;SDS011;67354;48.068;11.612;2023-03-12T14:44:53;7.22;;;3.55;;
78108;SDS011;67354;48.068;11.612;2023-03-12T14:47:23;7.00;;;3.30;;
78108;SDS011;67354;48.068;11.612;2023-03-12T14:49:48;8.60;;;2.78;;
78108;SDS011;67354;48.068;11.612;2023-03-12T14:52:21;5.50;;;3.33;;
78108;SDS011;67354;48.068;11.612;2023-03-12T14:54:55;5.10;;;2.50;;
78108;SDS011;67354;48.068;11.612;2023-03-12T14:57:22;7.55;;;3.08;;
78108;SDS011;67354;48.068;11.612;2023-03-12T14:59:55;21.67;;;7.90;;
78108;SDS011;67354;48.068;11.612;2023-03-12T15:02:25;19.42;;;6.18;;
78108;SDS011;67354;48.068;11.612;2023-03-12T15:04:52;7.20;;;2.75;;
78108;SDS011;67354;48.068;11.612;2023-03-12T15:07:21;12.70;;;5.88;;
78108;SDS011;67354;48.068;11.612;2023-03-12T15:09:49;5.70;;;3.17;;
78108;SDS011;67354;48.068;11.612;2023-03-12T15:12:18;9.15;;;3.45;;
78108;SDS011;67354;48.068;11.612;2023-03-12T15:14:45;7.60;;;2.70;;
78108;SDS011;67354;48.068;11.612;2023-03-12T15:17:14;5.95;;;2.38;;
78108;SDS011;67354;48.068;11.612;2023-03-12T15:19:41;5.95;;;2.13;;
78108;SDS011;67354;48.068;11.612;2023-03-12T15:22:20;7.55;;;2.72;;
78108;SDS011;67354;48.068;11.612;2023-03-12T15:24:49;3.63;;;2.10;;
78108;SDS011;67354;48.068;11.612;2023-03-12T15:29:49;5.40;;;2.30;;
78108;SDS011;67354;48.068;11.612;2023-03-12T15:32:15;6.63;;;2.58;;
78108;SDS011;67354;48.068;11.612;2023-03-12T15:34:42;2.42;;;1.50;;
78108;SDS011;67354;48.068;11.612;2023-03-12T15:39:51;2.38;;;1.52;;
78108;SDS011;67354;48.068;11.612;2023-03-12T15:42:18;3.03;;;1.70;;
78108;SDS011;67354;48.068;11.612;2023-03-12T15:44:48;3.53;;;1.75;;
78108;SDS011;67354;48.068;11.612;2023-03-12T15:47:25;4.80;;;1.80;;
78108;SDS011;67354;48.068;11.612;2023-03-12T15:49:56;1.85;;;1.42;;
78108;SDS011;67354;48.068;11.612;2023-03-12T15:52:26;3.50;;;1.50;;
78108;SDS011;67354;48.068;11.612;2023-03-12T15:57:43;3.53;;;1.50;;
78108;SDS011;67354;48.068;11.612;2023-03-12T16:02:53;2.97;;;1.70;;
78108;SDS011;67354;48.068;11.612;2023-03-12T16:05:20;2.13;;;1.42;;
78108;SDS011;67354;48.068;11.612;2023-03-12T16:07:50;3.03;;;1.50;;
78108;SDS011;67354;48.068;11.612;2023-03-12T16:10:16;3.22;;;1.85;;
78108;SDS011;67354;48.068;11.612;2023-03-12T16:12:43;3.65;;;1.58;;
78108;SDS011;67354;48.068;11.612;2023-03-12T16:15:13;1.80;;;1.50;;
78108;SDS011;67354;48.068;11.612;2023-03-12T16:17:46;1.95;;;1.30;;
78108;SDS011;67354;48.068;11.612;2023-03-12T16:20:13;5.63;;;1.73;;
78108;SDS011;67354;48.068;11.612;2023-03-12T16:22:41;3.45;;;1.67;;
78108;SDS011;67354;48.068;11.612;2023-03-12T16:25:06;3.70;;;1.70;;
78108;SDS011;67354;48.068;11.612;2023-03-12T16:27:32;2.72;;;1.80;;
78108;SDS011;67354;48.068;11.612;2023-03-12T16:30:04;2.90;;;1.77;;
78108;SDS011;67354;48.068;11.612;2023-03-12T16:32:34;4.15;;;2.10;;
78108;SDS011;67354;48.068;11.612;2023-03-12T16:35:00;13.45;;;3.60;;
78108;SDS011;67354;48.068;11.612;2023-03-12T16:37:25;2.83;;;2.10;;
78108;SDS011;67354;48.068;11.612;2023-03-12T16:39:51;6.97;;;2.42;;
78108;SDS011;67354;48.068;11.612;2023-03-12T16:42:17;3.47;;;1.70;;